METAR Data
IDs: Format: Raw Decoded Include TAF

Data at: 1716 UTC 03 Jun 2020

KVER 031715Z AUTO 27006KT 10SM SCT037 31/22 A2990 RMK AO2 T03120216
KVER 031655Z AUTO 25005KT 10SM BKN037 BKN075 31/21 A2990 RMK AO2 T03090213
KVER 031635Z AUTO 26005KT 10SM SCT035 BKN075 31/22 A2990 RMK AO2 T03080215
KVER 031615Z AUTO 26007KT 10SM SCT035 SCT075 31/21 A2991 RMK AO2 T03060213
KVER 031555Z AUTO 24008KT 10SM CLR 30/21 A2990 RMK AO2 T03020213
KVER 031535Z AUTO 24009KT 10SM CLR 30/21 A2990 RMK AO2 T02970213
KVER 031515Z AUTO 24006G14KT 10SM CLR 29/21 A2990 RMK AO2 T02930212
KVER 031455Z AUTO 23010G16KT 10SM CLR 29/21 A2991 RMK AO2 T02890213
KVER 031435Z AUTO 24010G15KT 10SM CLR 28/21 A2991 RMK AO2 T02820212
KVER 031415Z AUTO 24008G16KT 10SM SCT070 28/21 A2992 RMK AO2 T02760213
KVER 031355Z AUTO 24005KT 10SM SCT070 27/21 A2992 RMK AO2 T02710214
KVER 031335Z AUTO 23006KT 10SM BKN070 BKN080 26/21 A2993 RMK AO2 T02610212
KVER 031315Z AUTO 24005KT 10SM BKN070 BKN080 26/21 A2993 RMK AO2 T02560212
KVER 031255Z AUTO 23004KT 10SM SCT070 25/21 A2992 RMK AO2 T02520210
KVER 031235Z AUTO 24004KT 10SM SCT070 25/21 A2992 RMK AO2 T02450208
KVER 031215Z AUTO 22003KT 10SM CLR 24/21 A2991 RMK AO2 T02390207
KVER 031155Z AUTO 20005KT 10SM CLR 23/21 A2991 RMK AO2 T02310206 10330 21193
KVER 031135Z AUTO 21004KT 10SM CLR 23/21 A2991 RMK AO2 T02250206
KVER 031115Z AUTO 20006KT 10SM CLR 22/21 A2992 RMK AO2 T02230205
KVER 031055Z AUTO 20004KT 10SM CLR 22/20 A2992 RMK AO2 T02240203
KVER 031035Z AUTO 20003KT 10SM CLR 23/20 A2993 RMK AO2 T02260200
KVER 031015Z AUTO 21004KT 10SM CLR 23/20 A2993 RMK AO2 T02250200
KVER 030955Z AUTO 20004KT 10SM CLR 23/20 A2993 RMK AO2 T02260199
KVER 030935Z AUTO 19003KT 10SM CLR 23/20 A2993 RMK AO2 T02280197
KVER 030915Z AUTO 21003KT 10SM CLR 23/20 A2993 RMK AO2 T02280198
KVER 030855Z AUTO 20005KT 10SM CLR 23/20 A2993 RMK AO2 LTG DSNT N T02260197
KVER 030835Z AUTO 20004KT 10SM CLR 23/20 A2993 RMK AO2 T02250196
KVER 030815Z AUTO 20005KT 10SM CLR 23/20 A2994 RMK AO2 T02250195
KVER 030755Z AUTO 19004KT 10SM CLR 23/19 A2995 RMK AO2 T02250194
KVER 030735Z AUTO 20003KT 10SM CLR 23/19 A2995 RMK AO2 T02300193
KVER 030715Z AUTO 21004KT 10SM CLR 23/19 A2996 RMK AO2 T02330191
KVER 030655Z AUTO 21003KT 10SM CLR 24/19 A2996 RMK AO2 T02360191
KVER 030635Z AUTO 21004KT 10SM CLR 24/19 A2998 RMK AO2 T02370191
KVER 030615Z AUTO 21003KT 10SM CLR 24/19 A2998 RMK AO2 T02400190
KVER 030555Z AUTO 21003KT 10SM CLR 24/19 A2998 RMK AO2 T02400191 10330 21193 403301193
KVER 030535Z AUTO 21004KT 10SM CLR 24/19 A2997 RMK AO2 T02370193
KVER 030515Z AUTO 20004KT 10SM CLR 24/20 A2996 RMK AO2 T02380196
KVER 030455Z AUTO 20003KT 10SM CLR 24/20 A2997 RMK AO2 T02420199
KVER 030435Z AUTO 20003KT 10SM CLR 25/20 A2998 RMK AO2 T02450201
KVER 030415Z AUTO 19003KT 10SM CLR 25/20 A2998 RMK AO2 T02490202
KVER 030355Z AUTO 20003KT 10SM CLR 25/20 A2998 RMK AO2 T02490202
KVER 030335Z AUTO 19003KT 10SM CLR 25/20 A2996 RMK AO2 T02480202
KVER 030315Z AUTO 18004KT 10SM CLR 25/20 A2995 RMK AO2 T02480199
KVER 030255Z AUTO 18003KT 10SM CLR 25/20 A2995 RMK AO2 T02500196
KVER 030235Z AUTO 18003KT 10SM CLR 25/20 A2995 RMK AO2 T02540195
KVER 030215Z AUTO 17003KT 10SM CLR 26/20 A2995 RMK AO2 T02590195
KVER 030155Z AUTO 17004KT 10SM CLR 27/20 A2995 RMK AO2 T02670197
KVER 030135Z AUTO 00000KT 10SM CLR 28/19 A2995 RMK AO2 T02800192
KVER 030115Z AUTO 21003KT 10SM CLR 29/19 A2995 RMK AO2 T02890188
KVER 030055Z AUTO 22006KT 10SM CLR 30/19 A2995 RMK AO2 T02980188
KVER 030035Z AUTO 24006KT 10SM CLR 31/18 A2995 RMK AO2 T03050183
KVER 030015Z AUTO 21004KT 10SM CLR 31/18 A2995 RMK AO2 T03080183
KVER 022335Z AUTO 20008KT 10SM CLR 31/18 A2995 RMK AO2 T03130177
KVER 022315Z AUTO 22008KT 10SM CLR 32/18 A2995 RMK AO2 T03150177
KVER 022255Z AUTO 21008KT 10SM CLR 32/18 A2996 RMK AO2 T03170178
KVER 022235Z AUTO 19008KT 160V220 10SM CLR 32/18 A2996 RMK AO2 T03180178
KVER 022215Z AUTO 22005KT 10SM CLR 32/17 A2997 RMK AO2 T03170173
KVER 022155Z AUTO 21008KT 10SM CLR 32/18 A2998 RMK AO2 T03170179
KVER 022135Z AUTO 22006KT 10SM CLR 32/18 A2998 RMK AO2 LTG DSNT N T03170181
KVER 022115Z AUTO 21006G14KT 10SM CLR 32/17 A2998 RMK AO2 T03160174
KVER 022055Z AUTO 20006KT 10SM CLR 32/17 A2999 RMK AO2 T03160173
KVER 022035Z AUTO 22008KT 10SM CLR 32/18 A2999 RMK AO2 T03150181
KVER 022015Z AUTO 22008KT 10SM CLR 31/17 A3000 RMK AO2 T03120174
KVER 021955Z AUTO 22009KT 10SM CLR 31/18 A3000 RMK AO2 T03110177
KVER 021915Z AUTO 20009G14KT 10SM CLR 31/18 A3001 RMK AO2 T03070183
KVER 021855Z AUTO 22009KT 190V260 10SM CLR 30/19 A3002 RMK AO2 T03040185
KVER 021835Z AUTO 22006G14KT 10SM CLR 30/19 A3002 RMK AO2 T03030187
KVER 021815Z AUTO 21007KT 170V230 10SM CLR 30/18 A3003 RMK AO2 T03000182
KVER 021755Z AUTO 23007KT 10SM CLR 30/18 A3004 RMK AO2 T02970183 10330 21193
KVER 021735Z AUTO 22005KT 10SM CLR 29/19 A3004 RMK AO2 T02930185
KVER 021715Z AUTO 24010G15KT 10SM CLR 29/18 A3005 RMK AO2 T02910182
KVER 021655Z AUTO 24009KT 10SM CLR 29/18 A3005 RMK AO2 T02880181
KVER 021635Z AUTO 22008KT 190V250 10SM CLR 28/18 A3005 RMK AO2 T02840183
KVER 021615Z AUTO 22009KT 10SM CLR 28/18 A3006 RMK AO2 T02810183
KVER 021555Z AUTO 25008KT 220V280 10SM CLR 28/19 A3006 RMK AO2 T02770186
KVER 021535Z AUTO 25006G15KT 10SM CLR 27/18 A3006 RMK AO2 T02700181
KVER 021515Z AUTO 24006KT 10SM CLR 27/18 A3007 RMK AO2 T02650183
KVER 021455Z AUTO 24004KT 10SM CLR 26/18 A3007 RMK AO2 T02600184
KVER 021435Z AUTO 23004KT 10SM CLR 25/18 A3007 RMK AO2 T02530184
KVER 021415Z AUTO 21006KT 10SM CLR 25/18 A3008 RMK AO2 T02490184
KVER 021355Z AUTO 00000KT 10SM CLR 24/18 A3008 RMK AO2 T02430181
KVER 021335Z AUTO 23005KT 10SM CLR 24/18 A3007 RMK AO2 T02370179
KVER 021315Z AUTO 22004KT 10SM CLR 23/18 A3007 RMK AO2 T02310177
KVER 021255Z AUTO 21004KT 10SM CLR 22/18 A3007 RMK AO2 T02220179
KVER 021235Z AUTO 20003KT 10SM CLR 21/18 A3007 RMK AO2 T02140178
KVER 021215Z AUTO 20003KT 10SM CLR 21/18 A3006 RMK AO2 T02080177
KVER 021155Z AUTO 00000KT 10SM CLR 20/18 A3006 RMK AO2 T02020178 10330 21193
KVER 021135Z AUTO 20003KT 10SM CLR 20/18 A3006 RMK AO2 T01970181
KVER 021115Z AUTO 18003KT 10SM CLR 20/18 A3005 RMK AO2 T01950184
KVER 021055Z AUTO 18003KT 10SM CLR 19/19 A3005 RMK AO2 T01880187
KVER 021035Z AUTO 18003KT 10SM CLR 19/19 A3005 RMK AO2 T01870186
KVER 021015Z AUTO 17004KT 10SM CLR 19/19 A3005 RMK AO2 T01920186
KVER 020955Z AUTO 00000KT 10SM CLR 20/18 A3005 RMK AO2 T01960184
KVER 020935Z AUTO 00000KT 10SM CLR 20/18 A3004 RMK AO2 T01960184
KVER 020915Z AUTO 18004KT 10SM CLR 20/18 A3004 RMK AO2 T01980182
KVER 020855Z AUTO 18004KT 10SM CLR 20/18 A3004 RMK AO2 T02030179
KVER 020835Z AUTO 18003KT 10SM CLR 20/18 A3004 RMK AO2 T02040179
KVER 020815Z AUTO 18003KT 10SM CLR 20/18 A3005 RMK AO2 T02000182
KVER 020755Z AUTO 17004KT 10SM CLR 21/18 A3005 RMK AO2 T02070178
KVER 020735Z AUTO 19003KT 10SM CLR 21/18 A3005 RMK AO2 T02050181
KVER 020715Z AUTO 17004KT 10SM CLR 20/18 A3005 RMK AO2 T02040180
KVER 020655Z AUTO 17004KT 10SM CLR 21/18 A3005 RMK AO2 T02070176
KVER 020635Z AUTO 00000KT 10SM CLR 22/17 A3005 RMK AO2 T02160171
KVER 020615Z AUTO 00000KT 10SM CLR 22/17 A3005 RMK AO2 T02210170
KVER 020555Z AUTO 19003KT 10SM CLR 22/17 A3006 RMK AO2 T02240169 10330 21193 403301193
KVER 020535Z AUTO 19003KT 10SM CLR 23/17 A3006 RMK AO2 T02250167